Time;durP1;ratioP1;P1;durP2;ratioP2;P2;SDS_P1;SDS_P2;PMS_P1;PMS_P2;Temp;Humidity;BMP_temperature;BMP_pressure;BME280_temperature;BME280_humidity;BME280_pressure;Samples;Min_cycle;Max_cycle;Signal;HPM_P1;HPM_P2
2023/05/12 00:00:15;;;;;;;11.40;5.85;;;11.40;99.90;;;;;;5052060;28;20039;-64
2023/05/12 00:02:41;;;;;;;10.57;6.18;;;11.80;99.90;;;;;;5051938;28;20041;-63
2023/05/12 00:05:07;;;;;;;9.07;4.15;;;11.70;99.90;;;;;;5046264;28;20088;-64
2023/05/12 00:07:33;;;;;;;11.95;4.05;;;11.60;99.90;;;;;;5036192;28;20052;-63
2023/05/12 00:09:59;;;;;;;8.07;3.65;;;11.90;99.90;;;;;;5053847;28;20107;-62
2023/05/12 00:12:25;;;;;;;6.70;3.30;;;11.60;99.90;;;;;;5047372;28;20044;-63
2023/05/12 00:14:50;;;;;;;8.25;3.10;;;12.00;99.90;;;;;;5051680;28;20041;-63
2023/05/12 00:17:16;;;;;;;7.00;3.30;;;11.60;99.90;;;;;;5037169;28;20040;-63
2023/05/12 00:19:42;;;;;;;6.43;2.95;;;11.90;99.90;;;;;;5046157;28;20047;-64
2023/05/12 00:22:10;;;;;;;6.47;3.08;;;11.60;99.90;;;;;;5037354;28;20081;-63
2023/05/12 00:24:36;;;;;;;5.93;2.83;;;11.60;99.90;;;;;;5044747;28;20360;-63
2023/05/12 00:27:02;;;;;;;6.93;3.17;;;;;;;;;;5052283;28;20118;-63
2023/05/12 00:29:27;;;;;;;7.38;3.15;;;11.50;99.90;;;;;;5044508;28;20469;-64
2023/05/12 00:31:54;;;;;;;6.95;3.10;;;11.70;99.90;;;;;;5052822;28;20112;-63
2023/05/12 00:34:20;;;;;;;6.90;3.40;;;11.60;99.90;;;;;;5039620;28;20264;-63
2023/05/12 00:36:46;;;;;;;8.68;3.55;;;11.80;99.90;;;;;;5051071;28;20462;-64
2023/05/12 00:39:12;;;;;;;6.78;3.40;;;;;;;;;;5052337;28;20374;-63
2023/05/12 00:41:38;;;;;;;7.60;4.03;;;11.60;99.90;;;;;;5047146;28;20133;-63
2023/05/12 00:44:03;;;;;;;8.98;3.70;;;11.30;99.90;;;;;;5049299;28;20499;-63
2023/05/12 00:46:30;;;;;;;7.57;3.90;;;11.60;99.90;;;;;;5049632;28;20055;-63
2023/05/12 00:48:56;;;;;;;9.32;4.10;;;11.60;99.90;;;;;;5048505;28;20393;-64
2023/05/12 00:51:23;;;;;;;9.60;4.88;;;11.40;99.90;;;;;;5048432;28;20075;-64
2023/05/12 00:53:49;;;;;;;8.88;4.57;;;11.80;99.90;;;;;;5042510;28;20041;-64
2023/05/12 00:56:17;;;;;;;11.18;4.90;;;11.40;99.90;;;;;;5044006;28;20626;-64
2023/05/12 00:58:43;;;;;;;9.32;5.72;;;11.60;99.90;;;;;;5047031;28;20112;-64
2023/05/12 01:01:09;;;;;;;11.80;5.75;;;11.70;99.90;;;;;;5047502;28;20086;-64
2023/05/12 01:03:34;;;;;;;11.43;6.20;;;11.90;1.00;;;;;;5049936;28;20037;-64
2023/05/12 01:06:11;;;;;;;12.38;6.05;;;11.80;1.00;;;;;;5048654;28;20041;-64
2023/05/12 01:08:38;;;;;;;15.65;7.35;;;11.70;1.00;;;;;;5054973;28;20037;-63
2023/05/12 01:11:04;;;;;;;11.75;6.85;;;11.60;1.00;;;;;;5049932;28;20559;-64
2023/05/12 01:13:30;;;;;;;13.27;7.43;;;11.70;1.00;;;;;;5052734;28;20033;-64
2023/05/12 01:15:59;;;;;;;15.75;9.32;;;11.40;1.00;;;;;;5050844;28;20049;-65
2023/05/12 01:18:27;;;;;;;14.85;8.13;;;11.60;1.00;;;;;;5047255;28;20037;-64
2023/05/12 01:20:55;;;;;;;13.25;8.30;;;11.50;1.00;;;;;;5048067;28;20044;-64
2023/05/12 01:23:26;;;;;;;19.25;8.52;;;11.60;1.00;;;;;;5055321;28;20028;-64
2023/05/12 01:25:53;;;;;;;13.98;7.78;;;11.70;1.00;;;;;;5063941;28;20094;-64
2023/05/12 01:28:20;;;;;;;16.98;8.50;;;11.90;1.00;;;;;;5030842;28;20284;-64
2023/05/12 01:30:47;;;;;;;14.10;8.38;;;12.00;1.00;;;;;;5057494;28;20051;-64
2023/05/12 01:33:13;;;;;;;19.83;9.30;;;11.60;1.00;;;;;;5021968;28;20384;-65
2023/05/12 01:35:38;;;;;;;18.48;9.27;;;11.60;1.00;;;;;;5048542;28;20103;-64
2023/05/12 01:38:04;;;;;;;15.25;9.45;;;11.60;1.00;;;;;;5051984;28;20047;-64
2023/05/12 01:40:30;;;;;;;16.70;10.20;;;11.40;1.00;;;;;;5047553;28;20041;-64
2023/05/12 01:42:56;;;;;;;19.73;10.00;;;;;;;;;;5038432;28;20060;-65
2023/05/12 01:45:22;;;;;;;17.75;10.93;;;11.70;1.00;;;;;;5047429;28;20071;-64
2023/05/12 01:47:48;;;;;;;18.35;10.88;;;11.80;1.00;;;;;;5050120;28;20069;-65
2023/05/12 01:50:13;;;;;;;21.10;11.68;;;11.60;1.00;;;;;;5041421;28;20086;-65
2023/05/12 01:52:39;;;;;;;20.67;11.75;;;11.60;1.00;;;;;;5051563;28;20394;-65
2023/05/12 01:55:06;;;;;;;20.85;13.00;;;11.80;1.00;;;;;;5054640;28;20044;-64
2023/05/12 01:57:31;;;;;;;21.83;12.52;;;11.60;1.00;;;;;;5042876;28;20041;-64
2023/05/12 01:59:57;;;;;;;21.98;13.27;;;11.90;1.00;;;;;;5051432;28;20083;-64
2023/05/12 02:02:22;;;;;;;23.92;14.93;;;11.70;1.00;;;;;;5053757;28;20041;-64
2023/05/12 02:04:48;;;;;;;26.58;14.18;;;11.50;1.00;;;;;;5049382;28;20045;-65
2023/05/12 02:07:14;;;;;;;25.33;13.07;;;11.60;1.00;;;;;;5050515;28;20029;-64
2023/05/12 02:09:40;;;;;;;21.20;11.93;;;11.70;1.00;;;;;;5042771;28;20056;-64
2023/05/12 02:12:06;;;;;;;19.75;11.57;;;11.60;1.00;;;;;;5040763;28;20053;-64
2023/05/12 02:14:32;;;;;;;22.90;12.18;;;11.60;1.00;;;;;;5050395;28;20044;-64
2023/05/12 02:16:58;;;;;;;18.52;11.10;;;11.80;1.00;;;;;;5051183;28;20044;-65
2023/05/12 02:19:24;;;;;;;20.27;11.68;;;11.60;1.00;;;;;;5055829;28;20031;-65
2023/05/12 02:21:49;;;;;;;20.55;12.00;;;11.90;1.00;;;;;;5050878;28;20040;-62
2023/05/12 02:24:15;;;;;;;25.23;14.45;;;11.60;1.90;;;;;;5043502;28;20087;-63
2023/05/12 02:26:41;;;;;;;26.55;14.88;;;11.60;1.00;;;;;;5036626;28;20053;-63
2023/05/12 02:29:07;;;;;;;27.40;14.30;;;11.60;1.00;;;;;;5043551;28;20037;-62
2023/05/12 02:31:32;;;;;;;29.05;14.85;;;11.90;6.80;;;;;;5057538;28;20128;-63
2023/05/12 02:33:58;;;;;;;22.60;14.63;;;11.40;30.30;;;;;;5036515;28;20439;-63
2023/05/12 02:36:24;;;;;;;26.48;14.48;;;11.60;13.80;;;;;;5048600;28;20069;-62
2023/05/12 02:38:49;;;;;;;29.73;16.20;;;11.80;50.00;;;;;;5043600;28;20029;-63
2023/05/12 02:41:15;;;;;;;26.55;15.82;;;11.80;25.90;;;;;;5044289;28;20391;-63
2023/05/12 02:43:41;;;;;;;35.55;18.35;;;11.60;47.00;;;;;;5050257;28;20494;-63
2023/05/12 02:46:06;;;;;;;32.35;17.02;;;11.60;57.60;;;;;;5049503;28;20041;-62
2023/05/12 02:48:32;;;;;;;31.90;17.98;;;11.60;67.50;;;;;;5047646;28;20423;-62
2023/05/12 02:50:58;;;;;;;29.55;17.00;;;11.60;59.70;;;;;;5049255;28;20408;-62
2023/05/12 02:53:23;;;;;;;34.80;17.73;;;11.40;91.30;;;;;;5056046;28;20034;-62
2023/05/12 02:55:49;;;;;;;34.72;17.52;;;11.50;91.30;;;;;;5050071;28;20120;-62
2023/05/12 02:58:15;;;;;;;35.53;19.27;;;11.80;83.00;;;;;;5041542;28;20050;-63
2023/05/12 03:00:41;;;;;;;39.20;22.27;;;11.90;92.00;;;;;;5053863;28;20064;-63
2023/05/12 03:03:06;;;;;;;39.92;18.13;;;11.80;99.90;;;;;;5041014;28;20055;-62
2023/05/12 03:05:32;;;;;;;38.00;19.08;;;11.50;99.90;;;;;;5031806;28;20488;-63
2023/05/12 03:07:57;;;;;;;42.05;20.75;;;11.70;99.90;;;;;;5054837;28;20544;-63
2023/05/12 03:10:23;;;;;;;38.63;19.88;;;11.70;99.90;;;;;;5044500;28;20037;-63
2023/05/12 03:12:49;;;;;;;41.00;20.27;;;11.60;99.90;;;;;;5048422;28;20025;-62
2023/05/12 03:15:15;;;;;;;42.00;21.35;;;11.70;99.90;;;;;;5038360;28;20128;-63
2023/05/12 03:17:40;;;;;;;41.35;21.40;;;11.50;99.90;;;;;;5037747;28;20041;-63
2023/05/12 03:20:06;;;;;;;47.30;21.23;;;11.50;99.90;;;;;;5049297;28;20037;-63
2023/05/12 03:22:32;;;;;;;39.17;20.80;;;11.80;99.90;;;;;;5052098;28;20452;-63
2023/05/12 03:24:58;;;;;;;42.88;21.48;;;12.20;99.90;;;;;;5052424;28;20041;-65
2023/05/12 03:27:24;;;;;;;43.15;21.10;;;11.60;99.90;;;;;;5059644;28;20041;-65
2023/05/12 03:29:49;;;;;;;44.75;21.20;;;11.50;99.90;;;;;;5036311;28;20175;-65
2023/05/12 03:32:15;;;;;;;42.38;22.23;;;11.50;99.90;;;;;;5042897;28;20041;-65
2023/05/12 03:34:41;;;;;;;47.22;23.60;;;11.70;99.90;;;;;;5053845;28;20036;-64
2023/05/12 03:37:07;;;;;;;44.65;21.70;;;11.60;99.90;;;;;;5037582;28;20395;-64
2023/05/12 03:39:32;;;;;;;44.00;23.30;;;12.00;99.90;;;;;;5054508;28;20040;-64
2023/05/12 03:41:58;;;;;;;45.30;22.70;;;;;;;;;;5041070;28;20057;-64
2023/05/12 03:44:24;;;;;;;43.80;23.00;;;11.70;99.90;;;;;;5027592;28;20084;-65
2023/05/12 03:46:50;;;;;;;39.38;21.95;;;12.10;99.90;;;;;;5034938;28;20106;-65
2023/05/12 03:49:16;;;;;;;54.30;24.77;;;11.80;99.90;;;;;;5038870;28;20457;-64
2023/05/12 03:51:41;;;;;;;45.08;23.58;;;11.90;99.90;;;;;;5052057;28;20076;-64
2023/05/12 03:54:07;;;;;;;48.40;23.45;;;12.00;99.90;;;;;;5058462;28;20064;-65
2023/05/12 03:56:33;;;;;;;39.75;21.85;;;12.30;99.90;;;;;;5035228;28;20046;-65
2023/05/12 03:58:58;;;;;;;40.97;22.23;;;12.10;99.90;;;;;;5055226;28;20552;-65
2023/05/12 04:01:25;;;;;;;45.88;22.45;;;;;;;;;;5062356;28;20037;-64
2023/05/12 04:03:51;;;;;;;40.75;21.92;;;12.10;99.90;;;;;;5061519;28;20051;-65
2023/05/12 04:06:16;;;;;;;48.47;22.60;;;12.00;99.90;;;;;;5044529;28;20402;-64
2023/05/12 04:08:42;;;;;;;46.10;23.85;;;12.30;99.90;;;;;;5046314;28;20040;-64
2023/05/12 04:11:08;;;;;;;44.70;23.83;;;;;;;;;;5050272;28;20036;-64
2023/05/12 04:13:34;;;;;;;43.42;22.13;;;11.80;99.90;;;;;;5040247;28;20407;-65
2023/05/12 04:16:00;;;;;;;42.70;21.90;;;;;;;;;;5043099;28;20045;-65
2023/05/12 04:18:27;;;;;;;41.92;23.40;;;11.80;99.90;;;;;;5040275;28;21496;-65
2023/05/12 04:20:53;;;;;;;42.30;22.38;;;11.90;99.90;;;;;;5031543;28;20033;-65
2023/05/12 04:23:19;;;;;;;44.17;23.40;;;12.00;99.90;;;;;;5058147;28;20452;-65
2023/05/12 04:25:45;;;;;;;46.28;23.23;;;12.10;99.90;;;;;;5047443;28;20072;-64
2023/05/12 04:28:11;;;;;;;42.13;21.83;;;12.50;99.90;;;;;;5044909;28;20483;-65
2023/05/12 04:30:40;;;;;;;41.97;20.75;;;12.20;99.90;;;;;;5050162;28;20033;-65
2023/05/12 04:33:07;;;;;;;40.63;22.38;;;12.10;99.90;;;;;;5054474;28;20113;-65
2023/05/12 04:35:33;;;;;;;40.65;21.27;;;12.20;99.90;;;;;;5048941;28;20575;-65
2023/05/12 04:38:02;;;;;;;46.85;24.08;;;12.40;99.90;;;;;;5043500;28;20376;-65
2023/05/12 04:40:28;;;;;;;46.65;22.73;;;12.20;99.90;;;;;;5044866;28;20048;-64
2023/05/12 04:42:54;;;;;;;39.67;22.08;;;12.30;99.90;;;;;;5044101;28;20518;-64
2023/05/12 04:45:19;;;;;;;46.20;22.40;;;12.10;99.90;;;;;;5047610;28;20033;-65
2023/05/12 04:47:45;;;;;;;47.03;22.70;;;12.20;99.90;;;;;;5036596;28;20067;-64
2023/05/12 04:50:11;;;;;;;43.92;22.38;;;12.10;99.90;;;;;;5038851;28;20388;-64
2023/05/12 04:52:37;;;;;;;42.33;22.10;;;12.30;99.90;;;;;;5042984;28;20495;-65
2023/05/12 04:55:04;;;;;;;44.25;24.23;;;12.40;99.90;;;;;;5051708;28;20094;-65
2023/05/12 04:57:30;;;;;;;41.70;21.85;;;12.20;99.90;;;;;;5042562;28;20060;-65
2023/05/12 04:59:57;;;;;;;42.85;22.70;;;12.40;99.90;;;;;;5047197;28;20037;-64
2023/05/12 05:02:22;;;;;;;42.40;21.10;;;12.60;99.90;;;;;;5057264;28;20144;-65
2023/05/12 05:04:48;;;;;;;40.05;20.52;;;12.70;99.90;;;;;;5057176;28;20048;-64
2023/05/12 05:07:14;;;;;;;45.15;24.63;;;12.70;99.90;;;;;;5049721;28;20185;-64
2023/05/12 05:09:39;;;;;;;42.10;22.65;;;13.00;99.90;;;;;;5042645;28;20087;-65
2023/05/12 05:12:06;;;;;;;41.88;23.75;;;12.70;99.90;;;;;;5034736;28;20553;-65
2023/05/12 05:14:31;;;;;;;45.13;24.35;;;12.60;99.90;;;;;;5042667;28;20387;-64
2023/05/12 05:16:58;;;;;;;45.72;23.52;;;12.50;99.90;;;;;;5056949;28;20039;-65
2023/05/12 05:19:26;;;;;;;41.85;21.92;;;12.90;99.90;;;;;;5044671;28;20429;-64
2023/05/12 05:21:52;;;;;;;45.08;24.27;;;12.90;99.90;;;;;;5043386;28;20033;-64
2023/05/12 05:24:18;;;;;;;45.05;23.48;;;12.90;99.90;;;;;;5046766;28;20573;-64
2023/05/12 05:26:44;;;;;;;48.03;24.88;;;12.90;99.90;;;;;;5040955;28;20033;-65
2023/05/12 05:29:10;;;;;;;49.65;23.92;;;13.20;99.90;;;;;;5046806;28;20124;-63
2023/05/12 05:31:35;;;;;;;48.88;24.20;;;12.90;99.90;;;;;;5043013;28;20113;-65
2023/05/12 05:34:01;;;;;;;50.53;24.52;;;13.10;99.90;;;;;;5043171;28;20099;-65
2023/05/12 05:36:27;;;;;;;52.60;23.85;;;13.20;99.90;;;;;;5043792;28;20064;-65
2023/05/12 05:38:53;;;;;;;43.35;23.60;;;13.00;99.90;;;;;;5040596;28;20446;-65
2023/05/12 05:41:20;;;;;;;51.70;26.08;;;13.30;99.90;;;;;;5044472;28;20165;-66
2023/05/12 05:43:45;;;;;;;43.65;23.08;;;13.30;99.90;;;;;;5043049;28;20435;-65
2023/05/12 05:46:11;;;;;;;46.78;24.30;;;13.40;99.90;;;;;;5050722;28;20120;-66
2023/05/12 05:48:36;;;;;;;46.28;23.85;;;13.40;99.90;;;;;;5051658;28;20536;-65
2023/05/12 05:51:03;;;;;;;43.20;22.70;;;12.90;99.90;;;;;;5047065;28;20076;-67
2023/05/12 05:53:29;;;;;;;43.70;23.13;;;13.00;99.90;;;;;;5038241;28;20182;-65
2023/05/12 05:55:55;;;;;;;45.50;23.38;;;13.30;99.90;;;;;;5024576;28;20033;-66
2023/05/12 05:58:21;;;;;;;43.42;25.30;;;13.50;99.90;;;;;;5037279;28;20064;-65
2023/05/12 06:00:46;;;;;;;45.25;23.83;;;13.90;99.90;;;;;;5037094;28;20135;-65
2023/05/12 06:03:12;;;;;;;44.25;23.00;;;13.80;99.90;;;;;;5039225;28;20033;-64
2023/05/12 06:05:38;;;;;;;40.85;23.15;;;13.50;99.90;;;;;;5053596;28;20036;-65
2023/05/12 06:08:08;;;;;;;43.22;22.92;;;13.80;99.90;;;;;;5049952;28;20054;-65
2023/05/12 06:10:34;;;;;;;39.83;22.90;;;13.70;99.90;;;;;;5042131;28;20417;-65
2023/05/12 06:12:59;;;;;;;40.25;23.77;;;14.20;99.90;;;;;;5049704;28;20125;-65
2023/05/12 06:15:25;;;;;;;39.42;22.63;;;14.60;99.90;;;;;;5044046;28;20042;-65
2023/05/12 06:17:51;;;;;;;41.60;21.58;;;13.90;99.90;;;;;;5040931;28;20414;-65
2023/05/12 06:20:17;;;;;;;32.72;20.73;;;13.70;99.90;;;;;;5034139;28;20120;-66
2023/05/12 06:22:43;;;;;;;35.33;21.73;;;14.10;99.90;;;;;;5052694;28;20479;-65
2023/05/12 06:25:09;;;;;;;36.70;21.77;;;14.20;99.90;;;;;;5038054;28;20045;-65
2023/05/12 06:27:35;;;;;;;40.85;23.02;;;14.10;99.90;;;;;;5040811;28;20044;-67
2023/05/12 06:30:01;;;;;;;36.13;22.13;;;14.40;99.90;;;;;;5045181;28;20029;-65
2023/05/12 06:32:26;;;;;;;38.60;21.50;;;14.40;99.90;;;;;;5051306;28;20045;-65
2023/05/12 06:34:52;;;;;;;34.33;20.83;;;14.00;99.90;;;;;;5052326;28;20040;-65
2023/05/12 06:37:18;;;;;;;33.50;21.65;;;14.30;99.90;;;;;;5048735;28;20043;-65
2023/05/12 06:39:43;;;;;;;32.83;20.42;;;14.50;94.50;;;;;;5042544;28;20068;-65
2023/05/12 06:42:10;;;;;;;29.15;18.95;;;14.70;85.50;;;;;;5045185;28;20037;-65
2023/05/12 06:44:36;;;;;;;33.47;20.35;;;14.50;77.90;;;;;;5041862;28;20112;-65
2023/05/12 06:47:02;;;;;;;32.20;19.98;;;14.90;75.20;;;;;;5044416;28;20060;-65
2023/05/12 06:49:27;;;;;;;33.10;19.83;;;14.80;60.80;;;;;;5051875;28;20068;-65
2023/05/12 06:51:53;;;;;;;35.03;21.40;;;14.70;45.70;;;;;;5043566;28;20403;-66
2023/05/12 06:54:19;;;;;;;32.30;19.00;;;14.50;27.20;;;;;;5037477;28;20095;-65
2023/05/12 06:56:44;;;;;;;29.38;19.63;;;15.00;15.10;;;;;;5037249;28;20041;-66
2023/05/12 06:59:11;;;;;;;31.05;20.08;;;15.10;1.00;;;;;;5043426;28;20029;-65
2023/05/12 07:01:37;;;;;;;29.75;19.35;;;15.20;1.00;;;;;;5048787;28;20086;-65
2023/05/12 07:04:03;;;;;;;32.05;19.52;;;15.00;1.00;;;;;;5043266;28;20029;-65
2023/05/12 07:06:28;;;;;;;29.13;18.80;;;15.50;1.00;;;;;;5044296;28;20040;-65
2023/05/12 07:08:54;;;;;;;26.55;17.88;;;15.20;1.00;;;;;;5039438;28;20064;-65
2023/05/12 07:11:21;;;;;;;30.23;19.05;;;15.50;1.00;;;;;;5044301;28;20087;-65
2023/05/12 07:13:48;;;;;;;27.48;18.90;;;15.40;1.00;;;;;;5040641;28;20033;-65
2023/05/12 07:16:14;;;;;;;27.52;17.65;;;15.10;1.00;;;;;;5034144;28;20453;-65
2023/05/12 07:18:40;;;;;;;31.00;19.35;;;15.40;1.00;;;;;;5037184;28;20502;-65
2023/05/12 07:21:06;;;;;;;28.67;18.85;;;15.40;1.00;;;;;;5045454;28;20521;-66
2023/05/12 07:23:33;;;;;;;24.83;17.30;;;15.60;1.00;;;;;;5042571;28;20025;-65
2023/05/12 07:26:01;;;;;;;25.98;17.00;;;15.70;99.90;;;;;;5041115;28;20045;-65
2023/05/12 07:28:34;;;;;;;24.77;17.75;;;15.80;99.90;;;;;;5038076;28;20392;-65
2023/05/12 07:31:00;;;;;;;27.83;18.38;;;15.80;99.90;;;;;;5043240;28;20507;-65
2023/05/12 07:33:25;;;;;;;26.98;18.98;;;15.50;99.90;;;;;;5034088;28;20049;-65
2023/05/12 07:35:51;;;;;;;23.92;16.88;;;16.30;99.90;;;;;;5044883;28;20043;-65
2023/05/12 07:38:16;;;;;;;27.50;18.35;;;16.20;99.90;;;;;;5040530;28;20171;-65
2023/05/12 07:40:43;;;;;;;28.17;19.00;;;16.30;99.90;;;;;;5048248;28;20126;-65
2023/05/12 07:43:09;;;;;;;25.67;18.88;;;16.50;99.90;;;;;;5044009;28;20040;-65
2023/05/12 07:45:35;;;;;;;23.40;17.23;;;16.40;99.90;;;;;;5045468;28;20085;-65
2023/05/12 07:48:01;;;;;;;27.67;18.13;;;16.60;99.90;;;;;;5048698;28;20082;-65
2023/05/12 07:50:27;;;;;;;24.10;18.65;;;16.40;99.90;;;;;;5037156;28;20037;-66
2023/05/12 07:52:53;;;;;;;27.02;19.00;;;16.40;93.90;;;;;;5044073;28;20044;-66
2023/05/12 07:55:20;;;;;;;27.10;17.80;;;17.00;84.40;;;;;;5040113;28;20479;-65
2023/05/12 07:57:48;;;;;;;29.35;20.38;;;16.70;35.30;;;;;;5039771;28;20038;-65
2023/05/12 08:00:14;;;;;;;27.77;18.33;;;16.40;1.00;;;;;;5047026;28;20036;-65
2023/05/12 08:02:41;;;;;;;24.90;17.70;;;17.00;1.00;;;;;;5037598;28;20479;-65
2023/05/12 08:05:11;;;;;;;27.50;19.38;;;16.60;1.00;;;;;;5040710;28;20453;-65
2023/05/12 08:07:38;;;;;;;28.50;19.45;;;17.00;1.00;;;;;;5036435;28;20041;-65
2023/05/12 08:10:05;;;;;;;25.63;19.83;;;16.90;1.00;;;;;;5038987;28;20048;-65
2023/05/12 08:12:31;;;;;;;24.67;17.58;;;17.60;1.00;;;;;;5026491;28;20049;-65
2023/05/12 08:14:57;;;;;;;23.10;17.63;;;17.00;1.00;;;;;;5042179;28;20048;-65
2023/05/12 08:17:22;;;;;;;24.83;18.02;;;17.50;1.00;;;;;;5038995;28;20038;-65
2023/05/12 08:19:48;;;;;;;23.77;18.48;;;17.50;1.00;;;;;;5037788;28;20047;-65
2023/05/12 08:22:13;;;;;;;21.60;16.48;;;17.40;1.00;;;;;;5041295;28;20120;-65
2023/05/12 08:24:39;;;;;;;25.02;17.75;;;17.60;1.00;;;;;;5036825;28;20033;-65
2023/05/12 08:27:05;;;;;;;25.63;18.52;;;17.50;1.00;;;;;;5050244;28;20040;-65
2023/05/12 08:29:30;;;;;;;23.73;17.80;;;18.10;99.90;;;;;;5037876;28;20044;-66
2023/05/12 08:31:57;;;;;;;25.65;17.92;;;18.00;99.90;;;;;;5045625;28;20398;-65
2023/05/12 08:34:23;;;;;;;22.00;16.95;;;17.50;99.90;;;;;;5043878;28;20041;-65
2023/05/12 08:36:52;;;;;;;21.38;17.38;;;18.10;99.90;;;;;;5039657;28;20037;-65
2023/05/12 08:39:18;;;;;;;22.30;16.48;;;18.00;99.90;;;;;;5030869;28;20039;-65
2023/05/12 08:42:12;;;;;;;21.77;16.23;;;18.00;99.90;;;;;;5040479;28;20033;-65
2023/05/12 08:44:38;;;;;;;24.65;17.42;;;18.10;99.90;;;;;;5038614;28;20506;-66
2023/05/12 08:47:05;;;;;;;22.13;17.80;;;18.40;99.90;;;;;;5047065;28;20116;-65
2023/05/12 08:49:33;;;;;;;24.00;16.70;;;18.60;99.90;;;;;;5037449;28;20052;-66
2023/05/12 08:52:01;;;;;;;18.67;13.02;;;18.80;85.60;;;;;;5043752;28;20064;-65
2023/05/12 08:54:28;;;;;;;20.42;16.20;;;18.90;55.10;;;;;;5049686;28;20044;-65
2023/05/12 08:56:54;;;;;;;19.13;14.35;;;18.70;1.00;;;;;;5049020;28;20037;-65
2023/05/12 08:59:19;;;;;;;21.52;16.48;;;18.70;1.00;;;;;;5052224;28;20124;-66
2023/05/12 09:01:47;;;;;;;17.67;13.30;;;19.00;1.00;;;;;;5036348;28;20119;-66
2023/05/12 09:04:16;;;;;;;19.35;16.55;;;19.40;99.90;;;;;;5040531;28;20075;-66
2023/05/12 09:06:43;;;;;;;19.50;15.30;;;19.10;99.90;;;;;;5043350;28;20068;-65
2023/05/12 09:09:09;;;;;;;18.23;13.73;;;19.30;99.90;;;;;;5042603;28;20494;-65
2023/05/12 09:11:35;;;;;;;18.90;15.93;;;19.10;99.90;;;;;;5050469;28;20106;-65
2023/05/12 09:14:06;;;;;;;20.48;18.20;;;18.60;99.90;;;;;;5047099;28;20040;-65
2023/05/12 09:16:34;;;;;;;20.95;16.83;;;19.00;99.90;;;;;;5041848;28;20045;-65
2023/05/12 09:19:00;;;;;;;21.02;16.33;;;18.70;99.90;;;;;;5035545;28;20109;-65
2023/05/12 09:21:27;;;;;;;21.17;18.75;;;18.90;99.90;;;;;;5042214;28;20035;-65
2023/05/12 09:23:58;;;;;;;20.38;15.60;;;19.00;99.90;;;;;;5042442;28;20037;-65
2023/05/12 09:26:25;;;;;;;18.52;15.70;;;19.10;99.90;;;;;;5033895;28;20041;-65
2023/05/12 09:29:06;;;;;;;19.95;14.60;;;19.60;99.90;;;;;;5033112;28;20038;-65
2023/05/12 09:31:32;;;;;;;21.05;15.18;;;19.50;99.90;;;;;;5046069;28;20041;-65
2023/05/12 09:34:00;;;;;;;19.77;16.40;;;19.00;99.90;;;;;;5039263;28;20047;-65
2023/05/12 09:36:27;;;;;;;21.63;17.25;;;19.50;99.90;;;;;;5036869;28;20095;-65
2023/05/12 09:39:04;;;;;;;23.23;18.02;;;19.10;99.90;;;;;;5051578;28;20033;-65
2023/05/12 09:41:33;;;;;;;22.25;18.58;;;18.30;99.90;;;;;;5040490;28;20081;-64
2023/05/12 09:43:59;;;;;;;23.38;18.75;;;19.50;99.90;;;;;;5043703;28;20075;-64
2023/05/12 09:46:25;;;;;;;19.02;16.50;;;19.90;99.90;;;;;;5043188;28;20045;-64
2023/05/12 09:48:55;;;;;;;18.17;15.93;;;19.30;99.90;;;;;;5039755;28;20410;-64
2023/05/12 09:51:21;;;;;;;18.38;16.40;;;19.20;99.90;;;;;;5056182;28;20075;-64
2023/05/12 09:53:47;;;;;;;18.98;15.23;;;19.60;85.30;;;;;;5050542;28;20072;-64
2023/05/12 09:56:13;;;;;;;20.70;15.50;;;20.30;55.50;;;;;;5044631;28;20138;-64
2023/05/12 09:58:44;;;;;;;19.60;15.93;;;20.40;30.40;;;;;;5050428;28;20037;-64
2023/05/12 10:01:12;;;;;;;17.77;13.82;;;20.20;18.90;;;;;;5039708;28;20497;-64
2023/05/12 10:03:41;;;;;;;15.75;14.02;;;20.40;1.00;;;;;;5040215;28;20045;-64
2023/05/12 10:06:11;;;;;;;15.95;13.15;;;20.40;1.00;;;;;;5042894;28;20037;-64
2023/05/12 10:08:47;;;;;;;16.38;13.20;;;20.30;1.00;;;;;;5050951;28;20071;-63
2023/05/12 10:11:13;;;;;;;15.93;13.07;;;20.30;1.00;;;;;;5043015;28;20402;-64
2023/05/12 10:13:40;;;;;;;14.75;12.02;;;20.40;1.00;;;;;;5040989;28;20036;-64
2023/05/12 10:16:06;;;;;;;16.05;11.57;;;20.60;1.00;;;;;;5048186;28;20493;-64
2023/05/12 10:18:33;;;;;;;15.43;12.82;;;20.50;99.90;;;;;;5050511;28;20037;-64
2023/05/12 10:21:00;;;;;;;14.70;12.43;;;20.60;99.90;;;;;;5049541;28;20075;-65
2023/05/12 10:23:26;;;;;;;16.08;13.02;;;20.50;99.90;;;;;;5044645;28;20410;-65
2023/05/12 10:26:00;;;;;;;15.18;13.57;;;20.50;99.90;;;;;;5047115;28;20039;-64
2023/05/12 10:28:29;;;;;;;14.63;12.65;;;20.90;99.90;;;;;;5048516;28;20116;-64
2023/05/12 10:30:56;;;;;;;16.48;12.25;;;20.70;99.90;;;;;;5043082;28;20419;-64
2023/05/12 10:33:22;;;;;;;15.68;12.43;;;20.30;99.90;;;;;;5043778;28;20036;-65
2023/05/12 10:35:49;;;;;;;15.00;11.70;;;20.60;99.90;;;;;;5048818;28;20053;-64
2023/05/12 10:38:15;;;;;;;16.95;13.80;;;20.40;99.90;;;;;;5022730;28;20102;-64
2023/05/12 10:41:01;;;;;;;15.45;12.07;;;20.10;99.90;;;;;;5038615;28;20039;-64
2023/05/12 10:43:37;;;;;;;13.73;11.05;;;20.10;99.90;;;;;;5049385;28;20561;-64
2023/05/12 10:46:11;;;;;;;15.20;12.45;;;20.50;99.90;;;;;;5039544;28;20123;-64
2023/05/12 10:48:58;;;;;;;17.42;13.75;;;20.30;99.90;;;;;;5045026;28;20080;-64
2023/05/12 10:51:30;;;;;;;19.50;14.40;;;20.50;99.90;;;;;;5041316;28;20141;-64
2023/05/12 10:54:05;;;;;;;15.05;12.70;;;20.50;99.90;;;;;;5037674;28;20051;-64
2023/05/12 10:56:37;;;;;;;16.00;12.60;;;20.50;99.90;;;;;;5035156;28;20042;-64
2023/05/12 10:59:07;;;;;;;15.65;13.13;;;20.20;99.90;;;;;;5048849;28;20037;-65
2023/05/12 11:01:32;;;;;;;17.88;14.45;;;20.40;99.90;;;;;;5034763;28;20114;-64
2023/05/12 11:04:16;;;;;;;16.70;12.73;;;20.60;99.90;;;;;;5047448;28;20121;-64
2023/05/12 11:06:42;;;;;;;19.73;14.90;;;20.80;99.90;;;;;;5033017;28;20062;-65
2023/05/12 11:09:10;;;;;;;16.45;14.32;;;21.30;99.90;;;;;;5036196;28;20034;-64
2023/05/12 11:11:36;;;;;;;16.58;13.07;;;21.30;99.90;;;;;;5039247;28;20091;-66
2023/05/12 11:14:01;;;;;;;17.17;13.77;;;22.20;97.80;;;;;;5045219;28;20029;-65
2023/05/12 11:16:27;;;;;;;17.50;12.88;;;21.80;71.70;;;;;;5036784;28;20045;-65
2023/05/12 11:19:19;;;;;;;15.48;12.68;;;22.30;64.60;;;;;;5037941;28;20037;-65
2023/05/12 11:21:45;;;;;;;14.25;11.77;;;22.60;56.10;;;;;;5039960;28;20103;-65
2023/05/12 11:24:11;;;;;;;14.45;12.85;;;21.70;20.90;;;;;;5041705;28;20037;-65
2023/05/12 11:26:39;;;;;;;16.67;12.20;;;21.90;1.40;;;;;;5036778;28;20049;-65
2023/05/12 11:29:05;;;;;;;14.93;11.63;;;21.80;8.50;;;;;;5032818;28;20037;-66
2023/05/12 11:31:30;;;;;;;14.93;11.43;;;21.90;8.90;;;;;;5047870;28;20029;-66
2023/05/12 11:34:08;;;;;;;14.02;10.95;;;21.90;1.00;;;;;;5033795;28;20041;-65
2023/05/12 11:36:38;;;;;;;14.82;10.95;;;22.30;2.30;;;;;;5042522;28;20040;-65
2023/05/12 11:39:05;;;;;;;14.95;10.93;;;22.10;1.00;;;;;;5038629;28;20614;-65
2023/05/12 11:41:31;;;;;;;13.55;11.05;;;22.10;1.00;;;;;;5045641;28;20041;-65
2023/05/12 11:43:57;;;;;;;14.13;10.65;;;22.30;1.00;;;;;;5034196;28;20436;-65
2023/05/12 11:46:24;;;;;;;12.88;10.63;;;22.00;1.00;;;;;;5038488;28;20063;-65
2023/05/12 11:48:57;;;;;;;14.43;10.88;;;21.70;1.00;;;;;;5043742;28;20041;-65
2023/05/12 11:51:24;;;;;;;14.00;11.07;;;21.80;1.00;;;;;;5033635;28;20037;-65
2023/05/12 11:53:54;;;;;;;14.60;10.60;;;21.90;1.00;;;;;;5052966;28;20044;-65
2023/05/12 11:56:22;;;;;;;12.45;10.73;;;21.60;1.00;;;;;;5032894;28;20060;-65
2023/05/12 11:58:57;;;;;;;14.93;11.70;;;21.90;1.00;;;;;;5033960;28;20033;-65
2023/05/12 12:01:24;;;;;;;12.85;10.05;;;21.50;1.00;;;;;;5041936;28;20029;-65
2023/05/12 12:03:51;;;;;;;12.77;10.35;;;22.20;1.00;;;;;;5042386;28;20532;-65
2023/05/12 12:06:18;;;;;;;12.13;9.18;;;22.10;1.00;;;;;;5047106;28;20403;-65
2023/05/12 12:08:54;;;;;;;15.57;12.07;;;22.20;1.00;;;;;;5049779;28;20037;-65
2023/05/12 12:11:21;;;;;;;12.55;10.48;;;22.00;1.00;;;;;;5045297;28;20041;-65
2023/05/12 12:13:55;;;;;;;12.70;10.32;;;22.70;1.00;;;;;;5047809;28;20360;-65
2023/05/12 12:16:22;;;;;;;13.13;10.93;;;22.60;1.00;;;;;;5049083;28;20502;-65
2023/05/12 12:18:47;;;;;;;16.42;11.55;;;23.00;1.00;;;;;;5054900;28;20154;-64
2023/05/12 12:21:13;;;;;;;17.17;12.23;;;22.70;1.00;;;;;;5049376;28;20112;-65
2023/05/12 12:23:39;;;;;;;15.77;11.30;;;23.00;1.00;;;;;;5047390;28;20167;-65
2023/05/12 12:26:04;;;;;;;14.15;10.93;;;23.30;1.00;;;;;;5038471;28;20517;-64
2023/05/12 12:28:30;;;;;;;12.80;10.80;;;24.10;99.90;;;;;;5036716;28;20045;-63
2023/05/12 12:30:55;;;;;;;14.50;11.18;;;26.10;99.90;;;;;;5042062;28;20164;-63